sensor_id;sensor_type;location;lat;lon;timestamp;P1;durP1;ratioP1;P2;durP2;ratioP2
49252;SDS011;35103;47.952;-1.502;2022-12-07T00:01:23;422.25;;;391.77;;
49252;SDS011;35103;47.952;-1.502;2022-12-07T00:03:52;370.45;;;344.02;;
49252;SDS011;35103;47.952;-1.502;2022-12-07T00:06:19;432.67;;;400.40;;
49252;SDS011;35103;47.952;-1.502;2022-12-07T00:08:45;362.67;;;328.13;;
49252;SDS011;35103;47.952;-1.502;2022-12-07T00:11:21;435.10;;;403.88;;
49252;SDS011;35103;47.952;-1.502;2022-12-07T00:13:50;373.83;;;346.67;;
49252;SDS011;35103;47.952;-1.502;2022-12-07T00:16:22;344.25;;;320.15;;
49252;SDS011;35103;47.952;-1.502;2022-12-07T00:18:49;474.13;;;441.08;;
49252;SDS011;35103;47.952;-1.502;2022-12-07T00:21:16;357.77;;;332.60;;
49252;SDS011;35103;47.952;-1.502;2022-12-07T00:23:47;451.35;;;419.98;;
49252;SDS011;35103;47.952;-1.502;2022-12-07T00:29:01;438.73;;;408.30;;
49252;SDS011;35103;47.952;-1.502;2022-12-07T00:31:32;355.98;;;332.08;;
49252;SDS011;35103;47.952;-1.502;2022-12-07T00:34:00;465.23;;;432.58;;
49252;SDS011;35103;47.952;-1.502;2022-12-07T00:36:26;434.70;;;404.48;;
49252;SDS011;35103;47.952;-1.502;2022-12-07T00:38:52;424.25;;;395.05;;
49252;SDS011;35103;47.952;-1.502;2022-12-07T00:41:19;429.55;;;399.40;;
49252;SDS011;35103;47.952;-1.502;2022-12-07T00:43:46;413.33;;;384.88;;
49252;SDS011;35103;47.952;-1.502;2022-12-07T00:46:13;222.40;;;208.05;;
49252;SDS011;35103;47.952;-1.502;2022-12-07T00:48:39;212.95;;;198.35;;
49252;SDS011;35103;47.952;-1.502;2022-12-07T00:51:05;154.32;;;143.27;;
49252;SDS011;35103;47.952;-1.502;2022-12-07T00:53:33;188.85;;;175.73;;
49252;SDS011;35103;47.952;-1.502;2022-12-07T00:56:06;193.85;;;180.93;;
49252;SDS011;35103;47.952;-1.502;2022-12-07T00:58:33;261.60;;;243.60;;
49252;SDS011;35103;47.952;-1.502;2022-12-07T01:01:02;203.15;;;189.07;;
49252;SDS011;35103;47.952;-1.502;2022-12-07T01:03:28;223.63;;;208.60;;
49252;SDS011;35103;47.952;-1.502;2022-12-07T01:05:54;259.13;;;240.02;;
49252;SDS011;35103;47.952;-1.502;2022-12-07T01:08:21;221.77;;;206.57;;
49252;SDS011;35103;47.952;-1.502;2022-12-07T01:10:47;249.70;;;232.38;;
49252;SDS011;35103;47.952;-1.502;2022-12-07T01:13:14;216.07;;;201.43;;
49252;SDS011;35103;47.952;-1.502;2022-12-07T01:15:41;245.60;;;229.38;;
49252;SDS011;35103;47.952;-1.502;2022-12-07T01:18:07;317.40;;;295.85;;
49252;SDS011;35103;47.952;-1.502;2022-12-07T01:20:33;230.50;;;215.32;;
49252;SDS011;35103;47.952;-1.502;2022-12-07T01:22:59;239.57;;;222.95;;
49252;SDS011;35103;47.952;-1.502;2022-12-07T01:25:25;262.85;;;245.38;;
49252;SDS011;35103;47.952;-1.502;2022-12-07T01:27:50;174.77;;;162.40;;
49252;SDS011;35103;47.952;-1.502;2022-12-07T01:30:16;246.73;;;229.75;;
49252;SDS011;35103;47.952;-1.502;2022-12-07T01:32:42;208.43;;;194.05;;
49252;SDS011;35103;47.952;-1.502;2022-12-07T01:35:07;131.05;;;121.40;;
49252;SDS011;35103;47.952;-1.502;2022-12-07T01:37:34;156.77;;;144.93;;
49252;SDS011;35103;47.952;-1.502;2022-12-07T01:40:00;202.90;;;189.20;;
49252;SDS011;35103;47.952;-1.502;2022-12-07T01:42:26;150.43;;;139.93;;
49252;SDS011;35103;47.952;-1.502;2022-12-07T01:47:47;130.45;;;121.25;;
49252;SDS011;35103;47.952;-1.502;2022-12-07T01:50:18;158.98;;;147.65;;
49252;SDS011;35103;47.952;-1.502;2022-12-07T01:52:46;121.50;;;112.47;;
49252;SDS011;35103;47.952;-1.502;2022-12-07T01:55:15;115.03;;;106.38;;
49252;SDS011;35103;47.952;-1.502;2022-12-07T01:57:43;124.95;;;115.30;;
49252;SDS011;35103;47.952;-1.502;2022-12-07T02:00:12;144.40;;;134.05;;
49252;SDS011;35103;47.952;-1.502;2022-12-07T02:02:42;120.78;;;112.15;;
49252;SDS011;35103;47.952;-1.502;2022-12-07T02:05:12;177.95;;;163.10;;
49252;SDS011;35103;47.952;-1.502;2022-12-07T02:07:38;279.63;;;258.33;;
49252;SDS011;35103;47.952;-1.502;2022-12-07T02:12:44;270.05;;;249.10;;
49252;SDS011;35103;47.952;-1.502;2022-12-07T02:15:13;380.15;;;350.95;;
49252;SDS011;35103;47.952;-1.502;2022-12-07T02:17:52;310.55;;;286.95;;
49252;SDS011;35103;47.952;-1.502;2022-12-07T02:26:23;337.38;;;311.70;;
49252;SDS011;35103;47.952;-1.502;2022-12-07T02:29:21;247.32;;;228.05;;
49252;SDS011;35103;47.952;-1.502;2022-12-07T02:34:48;264.83;;;244.13;;
49252;SDS011;35103;47.952;-1.502;2022-12-07T02:37:24;268.38;;;247.95;;
49252;SDS011;35103;47.952;-1.502;2022-12-07T02:39:57;232.82;;;214.77;;
49252;SDS011;35103;47.952;-1.502;2022-12-07T02:42:33;337.08;;;311.75;;
49252;SDS011;35103;47.952;-1.502;2022-12-07T02:45:05;294.55;;;271.60;;
49252;SDS011;35103;47.952;-1.502;2022-12-07T02:47:33;342.55;;;315.42;;
49252;SDS011;35103;47.952;-1.502;2022-12-07T02:50:02;297.92;;;274.73;;
49252;SDS011;35103;47.952;-1.502;2022-12-07T02:52:30;275.50;;;254.23;;
49252;SDS011;35103;47.952;-1.502;2022-12-07T02:54:55;190.90;;;176.30;;
49252;SDS011;35103;47.952;-1.502;2022-12-07T02:57:31;313.23;;;289.40;;
49252;SDS011;35103;47.952;-1.502;2022-12-07T03:00:14;273.52;;;253.07;;
49252;SDS011;35103;47.952;-1.502;2022-12-07T03:02:50;307.35;;;283.30;;
49252;SDS011;35103;47.952;-1.502;2022-12-07T03:05:31;230.80;;;213.02;;
49252;SDS011;35103;47.952;-1.502;2022-12-07T03:08:13;301.92;;;278.60;;
49252;SDS011;35103;47.952;-1.502;2022-12-07T03:13:30;315.30;;;291.65;;
49252;SDS011;35103;47.952;-1.502;2022-12-07T03:19:13;312.10;;;289.52;;
49252;SDS011;35103;47.952;-1.502;2022-12-07T03:21:58;362.20;;;334.48;;
49252;SDS011;35103;47.952;-1.502;2022-12-07T03:24:27;335.58;;;311.77;;
49252;SDS011;35103;47.952;-1.502;2022-12-07T03:27:01;315.35;;;293.02;;
49252;SDS011;35103;47.952;-1.502;2022-12-07T03:29:34;296.75;;;275.83;;
49252;SDS011;35103;47.952;-1.502;2022-12-07T03:32:05;420.70;;;389.13;;
49252;SDS011;35103;47.952;-1.502;2022-12-07T03:35:05;295.52;;;274.85;;
49252;SDS011;35103;47.952;-1.502;2022-12-07T03:37:40;245.40;;;228.32;;
49252;SDS011;35103;47.952;-1.502;2022-12-07T03:40:16;335.27;;;311.67;;
49252;SDS011;35103;47.952;-1.502;2022-12-07T03:42:44;342.40;;;317.85;;
49252;SDS011;35103;47.952;-1.502;2022-12-07T03:45:10;280.77;;;260.90;;
49252;SDS011;35103;47.952;-1.502;2022-12-07T03:53:14;428.90;;;398.88;;
49252;SDS011;35103;47.952;-1.502;2022-12-07T03:55:59;494.85;;;458.80;;
49252;SDS011;35103;47.952;-1.502;2022-12-07T03:58:26;341.88;;;318.42;;
49252;SDS011;35103;47.952;-1.502;2022-12-07T04:00:52;323.63;;;301.42;;
49252;SDS011;35103;47.952;-1.502;2022-12-07T04:03:18;270.88;;;251.93;;
49252;SDS011;35103;47.952;-1.502;2022-12-07T04:05:44;329.45;;;306.67;;
49252;SDS011;35103;47.952;-1.502;2022-12-07T04:08:10;266.80;;;248.00;;
49252;SDS011;35103;47.952;-1.502;2022-12-07T04:10:35;288.20;;;267.33;;
49252;SDS011;35103;47.952;-1.502;2022-12-07T04:13:01;278.08;;;259.17;;
49252;SDS011;35103;47.952;-1.502;2022-12-07T04:15:27;325.33;;;302.35;;
49252;SDS011;35103;47.952;-1.502;2022-12-07T04:17:52;247.10;;;230.13;;
49252;SDS011;35103;47.952;-1.502;2022-12-07T04:20:18;292.23;;;271.58;;
49252;SDS011;35103;47.952;-1.502;2022-12-07T04:22:44;232.15;;;215.10;;
49252;SDS011;35103;47.952;-1.502;2022-12-07T04:25:09;256.63;;;237.00;;
49252;SDS011;35103;47.952;-1.502;2022-12-07T04:27:35;235.73;;;217.25;;
49252;SDS011;35103;47.952;-1.502;2022-12-07T04:30:01;232.00;;;214.10;;
49252;SDS011;35103;47.952;-1.502;2022-12-07T04:32:26;232.90;;;215.00;;
49252;SDS011;35103;47.952;-1.502;2022-12-07T04:34:52;201.13;;;185.70;;
49252;SDS011;35103;47.952;-1.502;2022-12-07T04:37:17;234.13;;;216.80;;
49252;SDS011;35103;47.952;-1.502;2022-12-07T04:39:43;203.50;;;187.93;;
49252;SDS011;35103;47.952;-1.502;2022-12-07T04:42:09;223.93;;;206.48;;
49252;SDS011;35103;47.952;-1.502;2022-12-07T04:44:35;208.48;;;192.20;;
49252;SDS011;35103;47.952;-1.502;2022-12-07T04:47:00;286.73;;;265.50;;
49252;SDS011;35103;47.952;-1.502;2022-12-07T04:49:26;226.73;;;209.60;;
49252;SDS011;35103;47.952;-1.502;2022-12-07T04:51:51;309.13;;;286.90;;
49252;SDS011;35103;47.952;-1.502;2022-12-07T04:54:17;252.52;;;234.02;;
49252;SDS011;35103;47.952;-1.502;2022-12-07T04:56:43;238.43;;;221.32;;
49252;SDS011;35103;47.952;-1.502;2022-12-07T04:59:09;292.27;;;271.33;;
49252;SDS011;35103;47.952;-1.502;2022-12-07T05:01:36;254.55;;;235.98;;
49252;SDS011;35103;47.952;-1.502;2022-12-07T05:04:02;231.00;;;214.30;;
49252;SDS011;35103;47.952;-1.502;2022-12-07T05:06:28;323.77;;;299.92;;
49252;SDS011;35103;47.952;-1.502;2022-12-07T05:08:53;332.20;;;308.10;;
49252;SDS011;35103;47.952;-1.502;2022-12-07T05:11:19;335.13;;;311.30;;
49252;SDS011;35103;47.952;-1.502;2022-12-07T05:13:44;286.65;;;265.85;;
49252;SDS011;35103;47.952;-1.502;2022-12-07T05:16:10;457.98;;;424.02;;
49252;SDS011;35103;47.952;-1.502;2022-12-07T05:18:35;411.95;;;381.92;;
49252;SDS011;35103;47.952;-1.502;2022-12-07T05:21:01;385.95;;;358.60;;
49252;SDS011;35103;47.952;-1.502;2022-12-07T05:23:26;427.83;;;398.33;;
49252;SDS011;35103;47.952;-1.502;2022-12-07T05:25:52;501.30;;;463.60;;
49252;SDS011;35103;47.952;-1.502;2022-12-07T05:28:18;379.25;;;353.40;;
49252;SDS011;35103;47.952;-1.502;2022-12-07T05:30:43;410.52;;;381.08;;
49252;SDS011;35103;47.952;-1.502;2022-12-07T05:33:09;385.13;;;357.40;;
49252;SDS011;35103;47.952;-1.502;2022-12-07T05:35:34;407.52;;;378.08;;
49252;SDS011;35103;47.952;-1.502;2022-12-07T05:38:00;233.10;;;216.50;;
49252;SDS011;35103;47.952;-1.502;2022-12-07T05:40:25;286.77;;;266.73;;
49252;SDS011;35103;47.952;-1.502;2022-12-07T05:42:51;304.25;;;283.27;;
49252;SDS011;35103;47.952;-1.502;2022-12-07T05:45:17;265.27;;;247.15;;
49252;SDS011;35103;47.952;-1.502;2022-12-07T05:47:42;277.45;;;258.02;;
49252;SDS011;35103;47.952;-1.502;2022-12-07T05:50:08;275.20;;;256.15;;
49252;SDS011;35103;47.952;-1.502;2022-12-07T05:52:34;410.73;;;381.85;;
49252;SDS011;35103;47.952;-1.502;2022-12-07T05:55:00;395.88;;;367.00;;
49252;SDS011;35103;47.952;-1.502;2022-12-07T05:57:25;312.30;;;291.05;;
49252;SDS011;35103;47.952;-1.502;2022-12-07T05:59:51;394.05;;;365.17;;
49252;SDS011;35103;47.952;-1.502;2022-12-07T06:02:16;361.48;;;336.23;;
49252;SDS011;35103;47.952;-1.502;2022-12-07T06:04:43;268.15;;;250.45;;
49252;SDS011;35103;47.952;-1.502;2022-12-07T06:07:11;340.48;;;317.70;;
49252;SDS011;35103;47.952;-1.502;2022-12-07T06:09:37;382.58;;;355.25;;
49252;SDS011;35103;47.952;-1.502;2022-12-07T06:12:03;430.10;;;399.33;;
49252;SDS011;35103;47.952;-1.502;2022-12-07T06:14:29;502.05;;;465.75;;
49252;SDS011;35103;47.952;-1.502;2022-12-07T06:16:55;346.00;;;321.67;;
49252;SDS011;35103;47.952;-1.502;2022-12-07T06:19:20;299.33;;;278.33;;
49252;SDS011;35103;47.952;-1.502;2022-12-07T06:21:46;388.20;;;359.85;;
49252;SDS011;35103;47.952;-1.502;2022-12-07T06:24:12;388.77;;;360.70;;
49252;SDS011;35103;47.952;-1.502;2022-12-07T06:26:39;443.75;;;412.42;;
49252;SDS011;35103;47.952;-1.502;2022-12-07T06:29:05;409.02;;;380.42;;
49252;SDS011;35103;47.952;-1.502;2022-12-07T06:31:31;351.42;;;326.70;;
49252;SDS011;35103;47.952;-1.502;2022-12-07T06:34:00;366.40;;;340.35;;
49252;SDS011;35103;47.952;-1.502;2022-12-07T06:36:28;519.72;;;479.77;;
49252;SDS011;35103;47.952;-1.502;2022-12-07T06:38:54;491.70;;;455.60;;
49252;SDS011;35103;47.952;-1.502;2022-12-07T06:41:20;441.80;;;409.23;;
49252;SDS011;35103;47.952;-1.502;2022-12-07T06:43:46;382.92;;;355.60;;
49252;SDS011;35103;47.952;-1.502;2022-12-07T06:46:13;520.38;;;481.98;;
49252;SDS011;35103;47.952;-1.502;2022-12-07T06:48:39;469.83;;;434.50;;
49252;SDS011;35103;47.952;-1.502;2022-12-07T06:51:05;489.63;;;452.52;;
49252;SDS011;35103;47.952;-1.502;2022-12-07T06:53:31;470.80;;;435.40;;
49252;SDS011;35103;47.952;-1.502;2022-12-07T06:55:57;460.17;;;426.08;;
49252;SDS011;35103;47.952;-1.502;2022-12-07T06:58:22;434.60;;;402.52;;
49252;SDS011;35103;47.952;-1.502;2022-12-07T07:00:48;403.23;;;373.65;;
49252;SDS011;35103;47.952;-1.502;2022-12-07T07:03:14;424.58;;;393.40;;
49252;SDS011;35103;47.952;-1.502;2022-12-07T07:05:40;438.02;;;407.52;;
49252;SDS011;35103;47.952;-1.502;2022-12-07T07:08:06;466.00;;;430.13;;
49252;SDS011;35103;47.952;-1.502;2022-12-07T07:10:33;377.77;;;350.48;;
49252;SDS011;35103;47.952;-1.502;2022-12-07T07:12:59;350.20;;;325.42;;
49252;SDS011;35103;47.952;-1.502;2022-12-07T07:15:24;413.42;;;381.67;;
49252;SDS011;35103;47.952;-1.502;2022-12-07T07:17:50;507.58;;;468.25;;
49252;SDS011;35103;47.952;-1.502;2022-12-07T07:20:16;458.20;;;424.58;;
49252;SDS011;35103;47.952;-1.502;2022-12-07T07:22:42;356.20;;;331.13;;
49252;SDS011;35103;47.952;-1.502;2022-12-07T07:25:07;343.65;;;319.55;;
49252;SDS011;35103;47.952;-1.502;2022-12-07T07:27:33;488.67;;;452.98;;
49252;SDS011;35103;47.952;-1.502;2022-12-07T07:29:58;388.50;;;360.95;;
49252;SDS011;35103;47.952;-1.502;2022-12-07T07:32:24;335.35;;;310.80;;
49252;SDS011;35103;47.952;-1.502;2022-12-07T07:34:50;423.33;;;392.80;;
49252;SDS011;35103;47.952;-1.502;2022-12-07T07:37:15;464.85;;;430.83;;
49252;SDS011;35103;47.952;-1.502;2022-12-07T07:39:41;403.27;;;374.52;;
49252;SDS011;35103;47.952;-1.502;2022-12-07T07:42:06;393.17;;;364.30;;
49252;SDS011;35103;47.952;-1.502;2022-12-07T07:44:32;341.17;;;316.45;;
49252;SDS011;35103;47.952;-1.502;2022-12-07T07:46:58;340.45;;;315.95;;
49252;SDS011;35103;47.952;-1.502;2022-12-07T07:49:24;425.23;;;394.23;;
49252;SDS011;35103;47.952;-1.502;2022-12-07T07:51:50;293.55;;;272.35;;
49252;SDS011;35103;47.952;-1.502;2022-12-07T07:54:15;340.10;;;315.55;;
49252;SDS011;35103;47.952;-1.502;2022-12-07T07:56:41;407.27;;;378.92;;
49252;SDS011;35103;47.952;-1.502;2022-12-07T07:59:07;340.95;;;316.77;;
49252;SDS011;35103;47.952;-1.502;2022-12-07T08:01:32;276.45;;;255.90;;
49252;SDS011;35103;47.952;-1.502;2022-12-07T08:03:58;268.13;;;248.80;;
49252;SDS011;35103;47.952;-1.502;2022-12-07T08:06:23;296.17;;;275.75;;
49252;SDS011;35103;47.952;-1.502;2022-12-07T08:08:49;327.23;;;304.15;;
49252;SDS011;35103;47.952;-1.502;2022-12-07T08:11:14;353.80;;;328.83;;
49252;SDS011;35103;47.952;-1.502;2022-12-07T08:13:40;286.60;;;266.27;;
49252;SDS011;35103;47.952;-1.502;2022-12-07T08:16:07;336.90;;;314.08;;
49252;SDS011;35103;47.952;-1.502;2022-12-07T08:18:38;294.20;;;274.98;;
49252;SDS011;35103;47.952;-1.502;2022-12-07T08:21:04;243.27;;;226.82;;
49252;SDS011;35103;47.952;-1.502;2022-12-07T08:23:31;268.77;;;250.55;;
49252;SDS011;35103;47.952;-1.502;2022-12-07T08:26:01;327.95;;;304.50;;
49252;SDS011;35103;47.952;-1.502;2022-12-07T08:28:28;333.33;;;310.10;;
49252;SDS011;35103;47.952;-1.502;2022-12-07T08:31:04;245.90;;;229.20;;
49252;SDS011;35103;47.952;-1.502;2022-12-07T08:33:31;185.30;;;171.98;;
49252;SDS011;35103;47.952;-1.502;2022-12-07T08:36:04;179.70;;;167.07;;
49252;SDS011;35103;47.952;-1.502;2022-12-07T08:38:32;173.80;;;161.70;;
49252;SDS011;35103;47.952;-1.502;2022-12-07T08:40:59;257.80;;;240.07;;
49252;SDS011;35103;47.952;-1.502;2022-12-07T08:43:24;216.10;;;200.23;;
49252;SDS011;35103;47.952;-1.502;2022-12-07T08:45:53;242.98;;;224.05;;
49252;SDS011;35103;47.952;-1.502;2022-12-07T08:51:18;186.70;;;173.13;;
49252;SDS011;35103;47.952;-1.502;2022-12-07T08:53:44;194.18;;;180.00;;
49252;SDS011;35103;47.952;-1.502;2022-12-07T08:56:10;200.75;;;186.45;;
49252;SDS011;35103;47.952;-1.502;2022-12-07T08:58:36;195.15;;;181.43;;
49252;SDS011;35103;47.952;-1.502;2022-12-07T09:01:03;209.43;;;195.07;;
49252;SDS011;35103;47.952;-1.502;2022-12-07T09:03:29;209.18;;;194.45;;
49252;SDS011;35103;47.952;-1.502;2022-12-07T09:05:55;243.30;;;226.43;;
49252;SDS011;35103;47.952;-1.502;2022-12-07T09:08:21;283.40;;;264.55;;
49252;SDS011;35103;47.952;-1.502;2022-12-07T09:10:48;224.80;;;209.77;;
49252;SDS011;35103;47.952;-1.502;2022-12-07T09:13:14;237.18;;;221.63;;
49252;SDS011;35103;47.952;-1.502;2022-12-07T09:15:39;241.38;;;225.27;;
49252;SDS011;35103;47.952;-1.502;2022-12-07T09:18:05;193.85;;;180.73;;
49252;SDS011;35103;47.952;-1.502;2022-12-07T09:20:30;184.07;;;170.90;;
49252;SDS011;35103;47.952;-1.502;2022-12-07T09:22:56;192.18;;;179.32;;
49252;SDS011;35103;47.952;-1.502;2022-12-07T09:25:21;184.02;;;171.60;;
49252;SDS011;35103;47.952;-1.502;2022-12-07T09:27:47;173.48;;;160.68;;
49252;SDS011;35103;47.952;-1.502;2022-12-07T09:30:13;279.80;;;257.30;;
49252;SDS011;35103;47.952;-1.502;2022-12-07T09:32:38;178.25;;;165.65;;
49252;SDS011;35103;47.952;-1.502;2022-12-07T09:35:04;262.00;;;244.13;;
49252;SDS011;35103;47.952;-1.502;2022-12-07T09:37:30;168.90;;;156.98;;
49252;SDS011;35103;47.952;-1.502;2022-12-07T09:39:55;220.02;;;202.63;;
49252;SDS011;35103;47.952;-1.502;2022-12-07T09:44:52;181.35;;;168.05;;
49252;SDS011;35103;47.952;-1.502;2022-12-07T09:47:18;185.68;;;172.10;;
49252;SDS011;35103;47.952;-1.502;2022-12-07T09:49:43;155.73;;;144.77;;
49252;SDS011;35103;47.952;-1.502;2022-12-07T09:54:47;171.13;;;158.52;;
49252;SDS011;35103;47.952;-1.502;2022-12-07T09:57:14;178.77;;;165.82;;
49252;SDS011;35103;47.952;-1.502;2022-12-07T09:59:40;162.95;;;151.15;;
49252;SDS011;35103;47.952;-1.502;2022-12-07T10:02:23;149.32;;;138.52;;
49252;SDS011;35103;47.952;-1.502;2022-12-07T10:05:00;199.07;;;184.43;;
49252;SDS011;35103;47.952;-1.502;2022-12-07T10:07:29;199.73;;;185.32;;
49252;SDS011;35103;47.952;-1.502;2022-12-07T10:09:54;171.35;;;158.38;;
49252;SDS011;35103;47.952;-1.502;2022-12-07T10:12:20;155.85;;;144.25;;
49252;SDS011;35103;47.952;-1.502;2022-12-07T10:15:02;165.32;;;153.50;;
49252;SDS011;35103;47.952;-1.502;2022-12-07T10:22:53;175.27;;;162.55;;
49252;SDS011;35103;47.952;-1.502;2022-12-07T10:25:21;165.70;;;153.85;;
49252;SDS011;35103;47.952;-1.502;2022-12-07T10:28:00;166.50;;;154.35;;
49252;SDS011;35103;47.952;-1.502;2022-12-07T10:33:52;181.82;;;168.25;;
49252;SDS011;35103;47.952;-1.502;2022-12-07T10:36:21;218.82;;;202.32;;
49252;SDS011;35103;47.952;-1.502;2022-12-07T10:38:48;205.25;;;191.15;;
49252;SDS011;35103;47.952;-1.502;2022-12-07T10:41:25;211.68;;;196.73;;
49252;SDS011;35103;47.952;-1.502;2022-12-07T10:43:52;186.98;;;174.05;;
49252;SDS011;35103;47.952;-1.502;2022-12-07T10:51:55;197.80;;;183.43;;
49252;SDS011;35103;47.952;-1.502;2022-12-07T10:58:17;144.32;;;134.25;;
49252;SDS011;35103;47.952;-1.502;2022-12-07T11:00:28;217.13;;;202.02;;
49252;SDS011;35103;47.952;-1.502;2022-12-07T11:06:03;210.55;;;196.30;;
49252;SDS011;35103;47.952;-1.502;2022-12-07T11:11:27;168.65;;;157.32;;
49252;SDS011;35103;47.952;-1.502;2022-12-07T11:17:26;167.90;;;155.98;;
49252;SDS011;35103;47.952;-1.502;2022-12-07T11:23:06;173.85;;;162.15;;
49252;SDS011;35103;47.952;-1.502;2022-12-07T11:25:48;180.45;;;169.00;;
49252;SDS011;35103;47.952;-1.502;2022-12-07T11:31:24;164.13;;;153.57;;
49252;SDS011;35103;47.952;-1.502;2022-12-07T11:34:00;214.52;;;200.73;;
49252;SDS011;35103;47.952;-1.502;2022-12-07T11:36:48;208.68;;;194.98;;
49252;SDS011;35103;47.952;-1.502;2022-12-07T11:39:37;197.63;;;184.50;;
49252;SDS011;35103;47.952;-1.502;2022-12-07T11:42:14;196.80;;;183.85;;
49252;SDS011;35103;47.952;-1.502;2022-12-07T11:50:27;216.75;;;201.98;;
49252;SDS011;35103;47.952;-1.502;2022-12-07T11:55:41;177.45;;;165.77;;
49252;SDS011;35103;47.952;-1.502;2022-12-07T12:06:38;204.95;;;191.90;;
49252;SDS011;35103;47.952;-1.502;2022-12-07T12:22:57;253.45;;;236.32;;
49252;SDS011;35103;47.952;-1.502;2022-12-07T12:25:30;221.65;;;206.55;;
49252;SDS011;35103;47.952;-1.502;2022-12-07T12:28:03;208.25;;;192.38;;
49252;SDS011;35103;47.952;-1.502;2022-12-07T12:30:37;224.88;;;209.70;;
49252;SDS011;35103;47.952;-1.502;2022-12-07T12:35:39;203.07;;;189.75;;
49252;SDS011;35103;47.952;-1.502;2022-12-07T12:40:54;302.23;;;281.10;;
49252;SDS011;35103;47.952;-1.502;2022-12-07T12:51:43;258.75;;;240.65;;
49252;SDS011;35103;47.952;-1.502;2022-12-07T12:54:12;304.95;;;283.20;;
49252;SDS011;35103;47.952;-1.502;2022-12-07T12:59:24;277.37;;;258.43;;
49252;SDS011;35103;47.952;-1.502;2022-12-07T13:02:58;341.90;;;318.13;;
49252;SDS011;35103;47.952;-1.502;2022-12-07T13:15:37;328.95;;;307.17;;
49252;SDS011;35103;47.952;-1.502;2022-12-07T13:18:04;279.55;;;259.85;;
49252;SDS011;35103;47.952;-1.502;2022-12-07T13:28:38;237.18;;;221.32;;
49252;SDS011;35103;47.952;-1.502;2022-12-07T13:33:49;363.38;;;337.60;;
49252;SDS011;35103;47.952;-1.502;2022-12-07T13:38:50;228.65;;;213.23;;
49252;SDS011;35103;47.952;-1.502;2022-12-07T13:41:24;303.30;;;283.05;;
49252;SDS011;35103;47.952;-1.502;2022-12-07T13:43:53;272.88;;;254.40;;
49252;SDS011;35103;47.952;-1.502;2022-12-07T13:46:34;261.40;;;243.52;;
49252;SDS011;35103;47.952;-1.502;2022-12-07T13:49:31;235.55;;;219.50;;
49252;SDS011;35103;47.952;-1.502;2022-12-07T13:52:18;252.45;;;233.85;;
49252;SDS011;35103;47.952;-1.502;2022-12-07T13:57:22;318.88;;;298.23;;
49252;SDS011;35103;47.952;-1.502;2022-12-07T13:59:50;178.57;;;166.48;;
49252;SDS011;35103;47.952;-1.502;2022-12-07T14:02:34;212.13;;;198.02;;
49252;SDS011;35103;47.952;-1.502;2022-12-07T14:05:10;248.32;;;231.98;;
49252;SDS011;35103;47.952;-1.502;2022-12-07T14:08:02;298.52;;;278.13;;
49252;SDS011;35103;47.952;-1.502;2022-12-07T14:10:40;309.98;;;289.85;;
49252;SDS011;35103;47.952;-1.502;2022-12-07T14:13:40;268.00;;;250.35;;
49252;SDS011;35103;47.952;-1.502;2022-12-07T14:16:18;327.98;;;305.90;;
49252;SDS011;35103;47.952;-1.502;2022-12-07T14:18:49;299.63;;;279.50;;
49252;SDS011;35103;47.952;-1.502;2022-12-07T14:21:16;289.58;;;270.13;;
49252;SDS011;35103;47.952;-1.502;2022-12-07T14:23:43;244.07;;;227.30;;
49252;SDS011;35103;47.952;-1.502;2022-12-07T14:26:13;321.83;;;300.67;;
49252;SDS011;35103;47.952;-1.502;2022-12-07T14:28:41;309.42;;;285.35;;
49252;SDS011;35103;47.952;-1.502;2022-12-07T14:31:10;293.67;;;270.40;;
49252;SDS011;35103;47.952;-1.502;2022-12-07T14:33:40;255.15;;;238.25;;
49252;SDS011;35103;47.952;-1.502;2022-12-07T14:36:13;231.02;;;215.27;;
49252;SDS011;35103;47.952;-1.502;2022-12-07T14:38:39;248.98;;;227.15;;
49252;SDS011;35103;47.952;-1.502;2022-12-07T14:41:15;275.33;;;257.02;;
49252;SDS011;35103;47.952;-1.502;2022-12-07T14:43:46;168.07;;;157.48;;
49252;SDS011;35103;47.952;-1.502;2022-12-07T14:46:11;318.60;;;296.58;;
49252;SDS011;35103;47.952;-1.502;2022-12-07T14:48:37;223.70;;;208.90;;
49252;SDS011;35103;47.952;-1.502;2022-12-07T14:51:03;252.65;;;234.50;;
49252;SDS011;35103;47.952;-1.502;2022-12-07T14:53:31;251.48;;;235.38;;
49252;SDS011;35103;47.952;-1.502;2022-12-07T14:56:00;311.00;;;289.27;;
49252;SDS011;35103;47.952;-1.502;2022-12-07T14:58:26;463.35;;;429.60;;
49252;SDS011;35103;47.952;-1.502;2022-12-07T15:00:52;386.52;;;352.52;;
49252;SDS011;35103;47.952;-1.502;2022-12-07T15:03:17;433.02;;;402.17;;
49252;SDS011;35103;47.952;-1.502;2022-12-07T15:05:43;367.48;;;339.90;;
49252;SDS011;35103;47.952;-1.502;2022-12-07T15:08:10;245.82;;;225.23;;
49252;SDS011;35103;47.952;-1.502;2022-12-07T15:10:38;324.75;;;300.17;;
49252;SDS011;35103;47.952;-1.502;2022-12-07T15:13:04;422.80;;;389.75;;
49252;SDS011;35103;47.952;-1.502;2022-12-07T15:15:30;192.68;;;179.55;;
49252;SDS011;35103;47.952;-1.502;2022-12-07T15:17:55;366.58;;;339.05;;
49252;SDS011;35103;47.952;-1.502;2022-12-07T15:20:21;423.92;;;391.45;;
49252;SDS011;35103;47.952;-1.502;2022-12-07T15:22:47;374.20;;;347.08;;
49252;SDS011;35103;47.952;-1.502;2022-12-07T15:25:13;289.10;;;268.65;;
49252;SDS011;35103;47.952;-1.502;2022-12-07T15:27:39;163.43;;;152.10;;
49252;SDS011;35103;47.952;-1.502;2022-12-07T15:30:05;286.95;;;266.27;;
49252;SDS011;35103;47.952;-1.502;2022-12-07T15:32:31;253.30;;;235.32;;
49252;SDS011;35103;47.952;-1.502;2022-12-07T15:34:56;199.55;;;185.93;;
49252;SDS011;35103;47.952;-1.502;2022-12-07T15:37:22;186.65;;;174.05;;
49252;SDS011;35103;47.952;-1.502;2022-12-07T15:39:47;238.05;;;221.18;;
49252;SDS011;35103;47.952;-1.502;2022-12-07T15:42:13;229.90;;;214.23;;
49252;SDS011;35103;47.952;-1.502;2022-12-07T15:44:38;287.60;;;268.10;;
49252;SDS011;35103;47.952;-1.502;2022-12-07T15:47:04;293.40;;;273.50;;
49252;SDS011;35103;47.952;-1.502;2022-12-07T15:49:30;203.02;;;188.98;;
49252;SDS011;35103;47.952;-1.502;2022-12-07T15:51:56;251.50;;;235.10;;
49252;SDS011;35103;47.952;-1.502;2022-12-07T15:54:23;258.90;;;239.73;;
49252;SDS011;35103;47.952;-1.502;2022-12-07T15:56:52;268.38;;;247.60;;
49252;SDS011;35103;47.952;-1.502;2022-12-07T15:59:18;300.08;;;277.75;;
49252;SDS011;35103;47.952;-1.502;2022-12-07T16:01:44;276.17;;;255.88;;
49252;SDS011;35103;47.952;-1.502;2022-12-07T16:04:09;331.90;;;305.10;;
49252;SDS011;35103;47.952;-1.502;2022-12-07T16:06:35;270.33;;;247.45;;
49252;SDS011;35103;47.952;-1.502;2022-12-07T16:09:01;327.20;;;300.10;;
49252;SDS011;35103;47.952;-1.502;2022-12-07T16:11:27;273.15;;;249.95;;
49252;SDS011;35103;47.952;-1.502;2022-12-07T16:13:52;236.35;;;215.57;;
49252;SDS011;35103;47.952;-1.502;2022-12-07T16:16:18;211.55;;;193.00;;